Time;durP1;ratioP1;P1;durP2;ratioP2;P2;SDS_P1;SDS_P2;PMS_P1;PMS_P2;Temp;Humidity;BMP_temperature;BMP_pressure;BME280_temperature;BME280_humidity;BME280_pressure;Samples;Min_cycle;Max_cycle;Signal;HPM_P1;HPM_P2
2021/07/24 00:01:15;;;;;;;16.75;13.10;;;;;;;;;;5026227;28;20678;-47
2021/07/24 00:03:41;;;;;;;14.57;11.57;;;;;;;;;;5032585;28;20259;-47
2021/07/24 00:06:07;;;;;;;13.77;12.30;;;;;;;;;;5034922;28;20178;-47
2021/07/24 00:08:33;;;;;;;14.00;11.52;;;;;;;;;;5034524;28;20176;-47
2021/07/24 00:11:03;;;;;;;13.23;11.55;;;;;;;;;;5034738;28;20190;-46
2021/07/24 00:13:29;;;;;;;14.00;12.30;;;;;;;;;;5035078;28;20191;-46
2021/07/24 00:15:55;;;;;;;14.82;12.55;;;;;;;;;;5033880;28;20184;-46
2021/07/24 00:18:21;;;;;;;14.48;12.85;;;;;;;;;;5032626;28;20199;-47
2021/07/24 00:20:47;;;;;;;14.82;12.57;;;;;;;;;;5035007;28;20547;-47
2021/07/24 00:23:13;;;;;;;14.27;11.82;;;;;;;;;;5033646;28;20434;-46
2021/07/24 00:25:40;;;;;;;14.43;12.07;;;;;;;;;;5017646;28;20561;-47
2021/07/24 00:28:06;;;;;;;13.95;12.25;;;;;;;;;;5024103;28;20226;-47
2021/07/24 00:30:33;;;;;;;14.15;12.25;;;;;;;;;;5034617;28;20263;-46
2021/07/24 00:32:58;;;;;;;12.57;11.27;;;;;;;;;;5034750;28;20608;-46
2021/07/24 00:35:24;;;;;;;15.57;12.45;;;;;;;;;;5032402;28;20194;-46
2021/07/24 00:37:52;;;;;;;14.23;12.15;;;;;;;;;;5033360;28;20207;-47
2021/07/24 00:40:20;;;;;;;14.18;12.20;;;;;;;;;;5016653;28;20211;-47
2021/07/24 00:42:49;;;;;;;12.00;10.52;;;;;;;;;;5025835;28;20189;-47
2021/07/24 00:45:16;;;;;;;16.58;12.65;;;;;;;;;;5023647;28;20176;-47
2021/07/24 00:47:43;;;;;;;13.32;11.18;;;;;;;;;;5014142;28;20188;-47
2021/07/24 00:50:13;;;;;;;14.68;12.15;;;;;;;;;;5033133;28;20283;-47
2021/07/24 00:52:43;;;;;;;13.73;11.80;;;;;;;;;;5033043;28;20182;-46
2021/07/24 00:55:09;;;;;;;14.02;11.52;;;;;;;;;;5029968;28;20184;-47
2021/07/24 00:57:36;;;;;;;13.25;11.88;;;;;;;;;;5014481;28;20422;-47
2021/07/24 01:00:05;;;;;;;12.95;11.25;;;;;;;;;;5023505;28;20179;-47
2021/07/24 01:02:31;;;;;;;14.30;11.15;;;;;;;;;;5033068;28;20442;-47
2021/07/24 01:04:57;;;;;;;12.73;11.40;;;;;;;;;;5027900;28;20172;-47
2021/07/24 01:07:24;;;;;;;14.20;10.93;;;;;;;;;;5030459;28;20191;-47
2021/07/24 01:09:50;;;;;;;13.18;11.68;;;;;;;;;;5025924;28;20195;-47
2021/07/24 01:12:16;;;;;;;13.02;10.88;;;;;;;;;;5018726;28;20172;-47
2021/07/24 01:14:42;;;;;;;14.23;12.13;;;;;;;;;;5026369;28;20238;-46
2021/07/24 01:17:08;;;;;;;13.70;11.95;;;;;;;;;;5037529;28;20184;-47
2021/07/24 01:19:34;;;;;;;13.13;11.30;;;;;;;;;;5038138;28;20475;-47
2021/07/24 01:22:00;;;;;;;13.10;11.32;;;;;;;;;;5033011;28;20185;-47
2021/07/24 01:24:26;;;;;;;14.98;11.68;;;;;;;;;;5025822;28;20198;-47
2021/07/24 01:26:52;;;;;;;13.70;11.65;;;;;;;;;;5023296;28;20607;-46
2021/07/24 01:29:20;;;;;;;13.40;12.00;;;;;;;;;;5037781;28;20245;-47
2021/07/24 01:31:46;;;;;;;12.38;10.50;;;;;;;;;;5035863;28;20191;-47
2021/07/24 01:34:12;;;;;;;13.73;11.80;;;;;;;;;;5027214;28;20202;-46
2021/07/24 01:36:38;;;;;;;13.45;12.05;;;;;;;;;;5037638;28;20214;-46
2021/07/24 01:39:05;;;;;;;12.20;10.90;;;;;;;;;;5027557;28;20480;-47
2021/07/24 01:41:31;;;;;;;14.23;11.80;;;;;;;;;;5029798;28;20651;-46
2021/07/24 01:43:57;;;;;;;13.07;11.77;;;;;;;;;;5022711;28;20263;-46
2021/07/24 01:46:24;;;;;;;14.43;12.30;;;;;;;;;;5047932;28;20198;-47
2021/07/24 01:54:25;;;;;;;12.50;11.02;;;;;;;;;;5031230;28;20203;-46
2021/07/24 01:56:52;;;;;;;12.93;11.50;;;;;;;;;;5037730;28;20171;-47
2021/07/24 01:59:19;;;;;;;12.93;11.43;;;;;;;;;;5035241;28;20192;-47
2021/07/24 02:01:45;;;;;;;13.82;11.80;;;;;;;;;;5021584;28;20196;-47
2021/07/24 02:04:15;;;;;;;12.93;11.13;;;;;;;;;;5036755;28;20263;-47
2021/07/24 02:06:42;;;;;;;12.50;10.98;;;;;;;;;;5036357;28;20700;-46
2021/07/24 02:09:08;;;;;;;14.38;11.82;;;;;;;;;;5036609;28;20183;-46
2021/07/24 02:11:34;;;;;;;14.02;11.52;;;;;;;;;;5037338;28;20175;-46
2021/07/24 02:14:00;;;;;;;13.90;11.43;;;;;;;;;;5033563;28;20211;-47
2021/07/24 02:16:26;;;;;;;12.52;11.23;;;;;;;;;;5027236;28;20180;-46
2021/07/24 02:18:54;;;;;;;12.45;11.15;;;;;;;;;;5036338;28;20207;-47
2021/07/24 02:21:20;;;;;;;13.10;10.95;;;;;;;;;;5036118;28;20184;-46
2021/07/24 02:23:46;;;;;;;13.30;11.80;;;;;;;;;;5031613;28;20219;-47
2021/07/24 02:26:12;;;;;;;12.88;10.85;;;;;;;;;;5033166;28;20442;-47
2021/07/24 02:28:38;;;;;;;12.63;11.13;;;;;;;;;;5020431;28;20187;-47
2021/07/24 02:31:05;;;;;;;11.90;10.43;;;;;;;;;;5036898;28;20172;-47
2021/07/24 02:33:31;;;;;;;11.65;10.45;;;;;;;;;;5036788;28;20446;-47
2021/07/24 02:35:57;;;;;;;12.52;11.23;;;;;;;;;;5035702;28;20211;-47
2021/07/24 02:38:23;;;;;;;13.02;11.45;;;;;;;;;;5031824;28;20560;-46
2021/07/24 02:40:49;;;;;;;11.75;10.55;;;;;;;;;;5017081;28;20172;-46
2021/07/24 02:43:15;;;;;;;12.55;11.25;;;;;;;;;;5026849;28;20226;-46
2021/07/24 02:45:41;;;;;;;13.32;11.00;;;;;;;;;;5033796;28;20167;-47
2021/07/24 02:48:07;;;;;;;13.38;10.85;;;;;;;;;;5036022;28;20597;-46
2021/07/24 02:50:33;;;;;;;11.98;10.75;;;;;;;;;;5036621;28;20176;-46
2021/07/24 02:52:59;;;;;;;13.10;11.68;;;;;;;;;;5036034;28;20198;-46
2021/07/24 02:55:25;;;;;;;12.70;11.40;;;;;;;;;;5036557;28;20180;-47
2021/07/24 02:57:51;;;;;;;12.13;10.90;;;;;;;;;;5033639;28;20622;-46
2021/07/24 03:00:17;;;;;;;12.75;10.85;;;;;;;;;;5034629;28;20184;-46
2021/07/24 03:02:43;;;;;;;12.82;11.38;;;;;;;;;;5035318;28;20188;-46
2021/07/24 03:05:09;;;;;;;15.13;10.48;;;;;;;;;;5032998;28;20196;-47
2021/07/24 03:07:35;;;;;;;13.60;10.82;;;;;;;;;;5032076;28;20201;-46
2021/07/24 03:10:01;;;;;;;11.77;10.57;;;;;;;;;;5035838;28;20176;-46
2021/07/24 03:12:27;;;;;;;13.98;11.43;;;;;;;;;;5036043;28;20306;-46
2021/07/24 03:14:53;;;;;;;13.15;11.75;;;;;;;;;;5035391;28;20183;-46
2021/07/24 03:17:20;;;;;;;11.35;10.15;;;;;;;;;;5034884;28;20190;-46
2021/07/24 03:19:46;;;;;;;13.25;11.63;;;;;;;;;;5035135;28;20196;-47
2021/07/24 03:22:12;;;;;;;14.00;11.75;;;;;;;;;;5034549;28;20742;-46
2021/07/24 03:24:38;;;;;;;12.52;10.80;;;;;;;;;;5035599;28;20180;-46
2021/07/24 03:27:04;;;;;;;11.85;10.65;;;;;;;;;;5034781;28;20199;-46
2021/07/24 03:29:30;;;;;;;11.80;10.60;;;;;;;;;;5034336;28;20195;-46
2021/07/24 03:31:56;;;;;;;12.55;11.25;;;;;;;;;;5029204;28;20185;-46
2021/07/24 03:34:22;;;;;;;12.57;10.77;;;;;;;;;;5027958;28;20194;-46
2021/07/24 03:36:48;;;;;;;13.27;11.13;;;;;;;;;;5025635;28;20195;-46
2021/07/24 03:39:14;;;;;;;12.82;11.25;;;;;;;;;;5032339;28;20484;-47
2021/07/24 03:41:40;;;;;;;12.48;11.13;;;;;;;;;;5024589;28;20183;-46
2021/07/24 03:44:07;;;;;;;13.82;10.82;;;;;;;;;;5035172;28;20187;-46
2021/07/24 03:46:33;;;;;;;12.20;10.85;;;;;;;;;;5026671;28;20168;-46
2021/07/24 03:48:59;;;;;;;12.70;10.60;;;;;;;;;;5050286;28;20213;-46
2021/07/24 03:51:25;;;;;;;12.57;10.63;;;;;;;;;;5023512;28;20207;-46
2021/07/24 03:53:51;;;;;;;12.60;10.95;;;;;;;;;;5034879;28;20184;-46
2021/07/24 03:56:21;;;;;;;12.55;10.50;;;;;;;;;;5034815;28;20222;-46
2021/07/24 03:58:50;;;;;;;11.68;10.48;;;;;;;;;;5034796;28;20563;-46
2021/07/24 04:01:16;;;;;;;11.77;10.57;;;;;;;;;;5025662;28;20188;-46
2021/07/24 04:03:42;;;;;;;12.48;9.93;;;;;;;;;;5026590;28;20210;-46
2021/07/24 04:06:28;;;;;;;27.33;12.95;;;;;;;;;;5029477;28;20246;-46
2021/07/24 04:08:56;;;;;;;25.50;12.85;;;;;;;;;;5034672;28;20168;-46
2021/07/24 04:11:22;;;;;;;28.63;11.70;;;;;;;;;;5035078;28;20172;-46
2021/07/24 04:13:49;;;;;;;21.77;12.57;;;;;;;;;;5029035;28;20299;-46
2021/07/24 04:16:15;;;;;;;21.92;11.63;;;;;;;;;;5031359;28;20181;-46
2021/07/24 04:18:41;;;;;;;18.10;12.43;;;;;;;;;;5020014;28;20207;-46
2021/07/24 04:21:08;;;;;;;14.98;10.80;;;;;;;;;;5033634;28;20225;-46
2021/07/24 04:23:35;;;;;;;14.68;10.98;;;;;;;;;;5025742;28;20224;-46
2021/07/24 04:26:01;;;;;;;12.23;10.75;;;;;;;;;;5034729;28;20326;-47
2021/07/24 04:28:27;;;;;;;13.25;10.75;;;;;;;;;;5034475;28;20176;-46
2021/07/24 04:30:53;;;;;;;25.30;11.95;;;;;;;;;;5034341;28;20176;-46
2021/07/24 04:33:19;;;;;;;14.88;10.13;;;;;;;;;;5034507;28;20186;-46
2021/07/24 04:35:46;;;;;;;14.38;10.65;;;;;;;;;;5029413;28;20238;-46
2021/07/24 04:38:12;;;;;;;15.23;11.38;;;;;;;;;;5033028;28;20199;-46
2021/07/24 04:40:38;;;;;;;12.57;10.43;;;;;;;;;;5027606;28;20259;-47
2021/07/24 04:43:04;;;;;;;13.45;10.77;;;;;;;;;;5023788;28;20663;-48
2021/07/24 04:45:31;;;;;;;13.07;11.63;;;;;;;;;;5033736;28;20176;-48
2021/07/24 04:47:57;;;;;;;14.25;11.18;;;;;;;;;;5032361;28;20172;-48
2021/07/24 04:50:23;;;;;;;14.75;11.27;;;;;;;;;;5034406;28;20479;-48
2021/07/24 04:52:50;;;;;;;15.85;11.43;;;;;;;;;;5034078;28;20190;-48
2021/07/24 04:55:16;;;;;;;14.70;10.93;;;;;;;;;;5053908;28;20580;-48
2021/07/24 04:57:42;;;;;;;12.50;10.77;;;;;;;;;;5047234;28;20187;-48
2021/07/24 05:00:11;;;;;;;13.95;10.95;;;;;;;;;;5034415;28;20164;-48
2021/07/24 05:02:37;;;;;;;16.38;10.90;;;;;;;;;;5033986;28;20187;-47
2021/07/24 05:05:03;;;;;;;14.15;10.65;;;;;;;;;;5034107;28;20618;-48
2021/07/24 05:07:32;;;;;;;12.10;10.65;;;;;;;;;;5033220;28;20724;-48
2021/07/24 05:09:58;;;;;;;12.57;11.23;;;;;;;;;;5034043;28;20183;-48
2021/07/24 05:12:24;;;;;;;12.13;9.88;;;;;;;;;;5034377;28;20180;-48
2021/07/24 05:14:50;;;;;;;16.13;11.10;;;;;;;;;;5034191;28;20188;-45
2021/07/24 05:17:16;;;;;;;15.55;11.00;;;;;;;;;;5033629;28;20524;-45
2021/07/24 05:19:43;;;;;;;13.57;9.95;;;;;;;;;;5031996;28;20231;-45
2021/07/24 05:22:09;;;;;;;13.65;10.30;;;;;;;;;;5029453;28;20451;-45
2021/07/24 05:24:36;;;;;;;16.90;10.25;;;;;;;;;;5033913;28;20176;-45
2021/07/24 05:27:02;;;;;;;14.23;10.38;;;;;;;;;;5035593;28;20192;-45
2021/07/24 05:29:29;;;;;;;11.88;10.30;;;;;;;;;;5036352;28;20558;-45
2021/07/24 05:31:55;;;;;;;11.10;9.95;;;;;;;;;;5036265;28;20164;-45
2021/07/24 05:34:21;;;;;;;11.63;9.90;;;;;;;;;;5036496;28;20164;-45
2021/07/24 05:36:47;;;;;;;13.50;9.98;;;;;;;;;;5036465;28;20172;-45
2021/07/24 05:39:13;;;;;;;12.40;9.93;;;;;;;;;;5036227;28;20192;-45
2021/07/24 05:41:39;;;;;;;15.10;10.23;;;;;;;;;;5036507;28;20172;-46
2021/07/24 05:47:09;;;;;;;13.15;11.00;;;;;;;;;;5036565;28;20182;-46
2021/07/24 05:49:37;;;;;;;12.40;10.63;;;;;;;;;;5036356;28;20172;-45
2021/07/24 05:52:08;;;;;;;14.90;10.65;;;;;;;;;;5036273;28;20164;-46
2021/07/24 05:54:34;;;;;;;14.20;10.32;;;;;;;;;;5036332;28;20510;-45
2021/07/24 05:57:00;;;;;;;14.40;10.23;;;;;;;;;;5039560;28;20210;-45
2021/07/24 05:59:26;;;;;;;14.43;10.38;;;;;;;;;;5038835;28;20595;-46
2021/07/24 06:01:52;;;;;;;12.32;10.18;;;;;;;;;;5037507;28;20238;-46
2021/07/24 06:04:18;;;;;;;14.52;10.70;;;;;;;;;;5037151;28;20646;-46
2021/07/24 06:06:44;;;;;;;12.55;10.60;;;;;;;;;;5034646;28;20450;-45
2021/07/24 06:09:10;;;;;;;11.02;9.93;;;;;;;;;;5017220;28;20201;-45
2021/07/24 06:11:36;;;;;;;11.88;10.65;;;;;;;;;;5036891;28;20188;-45
2021/07/24 06:14:02;;;;;;;11.77;10.52;;;;;;;;;;5036585;28;20202;-46
2021/07/24 06:16:28;;;;;;;11.25;10.00;;;;;;;;;;5037115;28;20187;-45
2021/07/24 06:18:54;;;;;;;10.95;9.68;;;;;;;;;;5035837;28;20306;-46
2021/07/24 06:21:20;;;;;;;12.45;10.65;;;;;;;;;;5029994;28;20195;-46
2021/07/24 06:23:46;;;;;;;12.20;10.77;;;;;;;;;;5031882;28;20187;-46
2021/07/24 06:26:11;;;;;;;14.02;11.80;;;;;;;;;;5033040;28;20187;-45
2021/07/24 06:28:38;;;;;;;15.75;11.80;;;;;;;;;;5034556;28;20258;-45
2021/07/24 06:31:04;;;;;;;13.80;12.30;;;;;;;;;;5035588;28;20176;-46
2021/07/24 06:33:30;;;;;;;14.77;11.73;;;;;;;;;;5035460;28;20188;-45
2021/07/24 06:35:58;;;;;;;13.20;11.48;;;;;;;;;;5033641;28;20207;-45
2021/07/24 06:38:24;;;;;;;13.40;11.05;;;;;;;;;;5016454;28;20197;-45
2021/07/24 06:40:50;;;;;;;16.52;11.48;;;;;;;;;;5029421;28;20176;-46
2021/07/24 06:43:16;;;;;;;12.20;10.70;;;;;;;;;;5036477;28;20180;-45
2021/07/24 06:45:42;;;;;;;14.20;11.63;;;;;;;;;;5035963;28;20253;-45
2021/07/24 06:48:08;;;;;;;14.85;11.15;;;;;;;;;;5035037;28;20167;-46
2021/07/24 06:50:34;;;;;;;15.52;11.80;;;;;;;;;;5035372;28;20583;-45
2021/07/24 06:53:00;;;;;;;13.43;12.02;;;;;;;;;;5036144;28;20233;-45
2021/07/24 06:55:27;;;;;;;12.65;11.35;;;;;;;;;;5035399;28;20532;-46
2021/07/24 06:57:53;;;;;;;14.55;10.90;;;;;;;;;;5034331;28;20180;-46
2021/07/24 07:00:19;;;;;;;14.10;11.55;;;;;;;;;;5035407;28;20254;-45
2021/07/24 07:02:45;;;;;;;13.38;11.75;;;;;;;;;;5035599;28;20195;-45
2021/07/24 07:05:11;;;;;;;13.25;11.73;;;;;;;;;;5035006;28;20216;-46
2021/07/24 07:07:37;;;;;;;12.75;11.45;;;;;;;;;;5033673;28;20187;-46
2021/07/24 07:10:04;;;;;;;15.25;12.30;;;;;;;;;;5035771;28;20705;-46
2021/07/24 07:12:30;;;;;;;16.08;11.68;;;;;;;;;;5036348;28;20198;-45
2021/07/24 07:14:58;;;;;;;13.23;10.95;;;;;;;;;;5035711;28;20199;-46
2021/07/24 07:17:24;;;;;;;13.38;11.93;;;;;;;;;;5022350;28;20244;-46
2021/07/24 07:19:50;;;;;;;13.38;11.50;;;;;;;;;;5022605;28;20567;-45
2021/07/24 07:22:16;;;;;;;12.20;10.90;;;;;;;;;;5035180;28;20446;-45
2021/07/24 07:24:42;;;;;;;11.90;10.70;;;;;;;;;;5036096;28;20422;-45
2021/07/24 07:27:08;;;;;;;14.07;11.57;;;;;;;;;;5035719;28;20172;-46
2021/07/24 07:29:35;;;;;;;14.15;11.90;;;;;;;;;;5035673;28;20195;-46
2021/07/24 07:32:01;;;;;;;12.52;11.23;;;;;;;;;;5035955;28;20618;-46
2021/07/24 07:34:26;;;;;;;12.50;11.30;;;;;;;;;;5034878;28;20176;-45
2021/07/24 07:36:52;;;;;;;14.10;11.75;;;;;;;;;;5035165;28;20218;-46
2021/07/24 07:39:18;;;;;;;13.60;11.43;;;;;;;;;;5035443;28;20222;-45
2021/07/24 07:41:44;;;;;;;14.95;11.18;;;;;;;;;;5035444;28;20172;-46
2021/07/24 07:44:10;;;;;;;11.18;9.90;;;;;;;;;;5035442;28;20192;-48
2021/07/24 07:46:36;;;;;;;12.57;10.75;;;;;;;;;;5035440;28;20183;-48
2021/07/24 07:49:02;;;;;;;13.32;10.73;;;;;;;;;;5026895;28;20180;-48
2021/07/24 07:51:28;;;;;;;12.20;10.77;;;;;;;;;;5017191;28;20173;-48
2021/07/24 07:53:54;;;;;;;11.70;10.45;;;;;;;;;;5035262;28;20188;-48
2021/07/24 07:56:20;;;;;;;11.82;10.25;;;;;;;;;;5035432;28;20222;-48
2021/07/24 07:58:46;;;;;;;11.57;10.43;;;;;;;;;;5023008;28;20199;-48
2021/07/24 08:01:13;;;;;;;14.95;11.48;;;;;;;;;;5035333;28;20237;-48
2021/07/24 08:03:39;;;;;;;12.27;11.00;;;;;;;;;;5035172;28;20210;-48
2021/07/24 08:06:06;;;;;;;11.80;10.30;;;;;;;;;;5034179;28;20222;-48
2021/07/24 08:08:32;;;;;;;11.50;10.30;;;;;;;;;;5034577;28;20168;-48
2021/07/24 08:10:58;;;;;;;12.05;10.85;;;;;;;;;;5035042;28;20562;-48
2021/07/24 08:13:26;;;;;;;12.95;10.18;;;;;;;;;;5034053;28;20191;-48
2021/07/24 08:15:52;;;;;;;12.45;10.30;;;;;;;;;;5024165;28;20199;-48
2021/07/24 08:18:18;;;;;;;11.68;10.43;;;;;;;;;;5034216;28;20223;-48
2021/07/24 08:20:44;;;;;;;10.98;9.88;;;;;;;;;;5034808;28;20221;-48
2021/07/24 08:23:13;;;;;;;13.05;10.05;;;;;;;;;;5025735;28;20262;-48
2021/07/24 08:25:39;;;;;;;11.95;10.52;;;;;;;;;;5035121;28;20504;-48
2021/07/24 08:28:05;;;;;;;12.05;10.68;;;;;;;;;;5034039;28;20195;-48
2021/07/24 08:30:32;;;;;;;11.55;10.00;;;;;;;;;;5034783;28;20180;-48
2021/07/24 08:32:58;;;;;;;10.15;9.05;;;;;;;;;;5034953;28;20477;-48
2021/07/24 08:35:24;;;;;;;11.35;10.02;;;;;;;;;;5034257;28;20210;-48
2021/07/24 08:37:50;;;;;;;12.80;10.32;;;;;;;;;;5034186;28;20180;-48
2021/07/24 08:40:17;;;;;;;10.75;9.27;;;;;;;;;;5031908;28;20539;-48
2021/07/24 08:42:43;;;;;;;11.77;10.20;;;;;;;;;;5029937;28;20541;-48
2021/07/24 08:45:10;;;;;;;12.32;10.45;;;;;;;;;;5034210;28;20176;-48
2021/07/24 08:47:36;;;;;;;11.85;9.80;;;;;;;;;;5032495;28;20179;-48
2021/07/24 08:50:07;;;;;;;10.68;9.57;;;;;;;;;;5034812;28;20202;-48
2021/07/24 08:52:33;;;;;;;11.48;9.55;;;;;;;;;;5033870;28;20190;-48
2021/07/24 08:55:00;;;;;;;11.23;9.73;;;;;;;;;;5033283;28;20191;-48
2021/07/24 08:57:35;;;;;;;14.27;10.73;;;;;;;;;;5018988;28;20568;-48
2021/07/24 09:00:05;;;;;;;10.95;9.85;;;;;;;;;;5023527;28;20297;-48
2021/07/24 09:02:32;;;;;;;11.25;10.05;;;;;;;;;;5038341;28;20194;-48
2021/07/24 09:05:03;;;;;;;11.52;9.75;;;;;;;;;;5047141;28;20477;-48
2021/07/24 09:07:31;;;;;;;11.43;10.15;;;;;;;;;;5033994;28;20178;-48
2021/07/24 09:09:59;;;;;;;11.07;9.85;;;;;;;;;;5034140;28;20594;-48
2021/07/24 09:12:26;;;;;;;11.00;9.88;;;;;;;;;;5034095;28;20206;-48
2021/07/24 09:14:52;;;;;;;11.93;10.25;;;;;;;;;;5032489;28;20195;-46
2021/07/24 09:17:19;;;;;;;12.07;10.27;;;;;;;;;;5020474;28;20243;-45
2021/07/24 09:19:45;;;;;;;11.15;9.38;;;;;;;;;;5034015;28;20211;-46
2021/07/24 09:22:30;;;;;;;11.40;8.13;;;;;;;;;;5034451;28;20578;-45
2021/07/24 09:25:08;;;;;;;8.20;7.40;;;;;;;;;;5033963;28;20570;-45
2021/07/24 09:27:34;;;;;;;9.85;8.38;;;;;;;;;;5033969;28;20251;-46
2021/07/24 09:30:01;;;;;;;7.90;7.10;;;;;;;;;;5027780;28;20196;-46
2021/07/24 09:32:28;;;;;;;8.65;7.30;;;;;;;;;;5019435;28;20234;-46
2021/07/24 09:34:54;;;;;;;8.10;7.30;;;;;;;;;;5037753;28;20183;-45
2021/07/24 09:37:27;;;;;;;7.85;7.05;;;;;;;;;;5037656;28;20198;-46
2021/07/24 09:39:58;;;;;;;8.40;7.22;;;;;;;;;;5037467;28;20227;-46
2021/07/24 09:42:33;;;;;;;9.55;7.93;;;;;;;;;;5037981;28;20176;-45
2021/07/24 09:45:06;;;;;;;10.07;7.28;;;;;;;;;;5037667;28;20207;-46
2021/07/24 09:47:32;;;;;;;7.78;7.07;;;;;;;;;;5029119;28;20544;-46
2021/07/24 09:50:18;;;;;;;8.65;7.78;;;;;;;;;;5037563;28;20190;-46
2021/07/24 09:52:51;;;;;;;8.40;7.18;;;;;;;;;;5037318;28;20275;-46
2021/07/24 09:55:26;;;;;;;7.85;7.13;;;;;;;;;;5037433;28;20237;-46
2021/07/24 09:57:53;;;;;;;8.38;7.47;;;;;;;;;;5037181;28;20175;-46
2021/07/24 10:00:30;;;;;;;9.45;6.82;;;;;;;;;;5030800;28;20282;-46
2021/07/24 10:02:56;;;;;;;7.78;6.90;;;;;;;;;;5043867;28;20167;-46
2021/07/24 10:05:23;;;;;;;10.55;7.00;;;;;;;;;;5033182;28;20203;-46
2021/07/24 10:07:50;;;;;;;8.40;7.28;;;;;;;;;;5037016;28;20191;-46
2021/07/24 10:10:17;;;;;;;7.32;6.50;;;;;;;;;;5037539;28;20183;-46
2021/07/24 10:12:43;;;;;;;7.70;7.00;;;;;;;;;;5037572;28;20164;-46
2021/07/24 10:15:11;;;;;;;7.25;6.45;;;;;;;;;;5036773;28;20582;-46
2021/07/24 10:17:37;;;;;;;9.95;7.50;;;;;;;;;;5036715;28;20460;-46
2021/07/24 10:20:04;;;;;;;8.70;7.15;;;;;;;;;;5037324;28;20284;-46
2021/07/24 10:22:30;;;;;;;8.57;6.93;;;;;;;;;;5036527;28;20190;-46
2021/07/24 10:24:56;;;;;;;9.45;7.32;;;;;;;;;;5036633;28;20179;-46
2021/07/24 10:27:28;;;;;;;9.13;7.50;;;;;;;;;;5036579;28;20655;-46
2021/07/24 10:30:03;;;;;;;8.90;8.00;;;;;;;;;;5035102;28;20192;-46
2021/07/24 10:32:31;;;;;;;7.85;6.82;;;;;;;;;;5036985;28;20198;-46
2021/07/24 10:34:57;;;;;;;9.57;7.15;;;;;;;;;;5036491;28;20198;-46
2021/07/24 10:37:35;;;;;;;10.85;7.45;;;;;;;;;;5034696;28;20235;-46
2021/07/24 10:40:16;;;;;;;9.25;7.57;;;;;;;;;;5024880;28;20297;-46
2021/07/24 10:42:44;;;;;;;8.00;7.13;;;;;;;;;;5035482;28;20176;-46
2021/07/24 10:45:29;;;;;;;9.20;7.60;;;;;;;;;;5035403;28;20184;-46
2021/07/24 10:48:13;;;;;;;8.50;7.50;;;;;;;;;;5020399;28;20180;-46
2021/07/24 10:51:09;;;;;;;7.95;7.10;;;;;;;;;;5024879;28;20179;-46
2021/07/24 10:53:58;;;;;;;8.60;7.55;;;;;;;;;;5036804;28;20164;-47
2021/07/24 10:56:37;;;;;;;8.68;7.82;;;;;;;;;;5031639;28;20579;-47
2021/07/24 10:59:17;;;;;;;8.95;7.57;;;;;;;;;;5026924;28;20294;-47
2021/07/24 11:01:44;;;;;;;8.70;7.80;;;;;;;;;;5029841;28;20613;-47
2021/07/24 11:04:29;;;;;;;8.52;7.63;;;;;;;;;;5046412;28;20176;-47
2021/07/24 11:07:15;;;;;;;9.13;7.40;;;;;;;;;;5025238;28;20193;-46
2021/07/24 11:09:45;;;;;;;9.77;7.80;;;;;;;;;;5027129;28;20181;-47
2021/07/24 11:12:14;;;;;;;8.95;8.05;;;;;;;;;;5027621;28;20188;-47
2021/07/24 11:14:43;;;;;;;10.88;8.10;;;;;;;;;;5035389;28;20570;-47
2021/07/24 11:17:11;;;;;;;8.43;7.45;;;;;;;;;;5035913;28;20172;-47
2021/07/24 11:19:42;;;;;;;11.68;7.82;;;;;;;;;;5035842;28;20299;-47
2021/07/24 11:22:18;;;;;;;10.82;8.95;;;;;;;;;;5036008;28;20175;-46
2021/07/24 11:24:45;;;;;;;9.65;7.82;;;;;;;;;;5035733;28;20180;-47
2021/07/24 11:27:11;;;;;;;12.40;7.50;;;;;;;;;;5019408;28;20184;-47
2021/07/24 11:29:38;;;;;;;11.43;8.43;;;;;;;;;;5033658;28;20180;-47
2021/07/24 11:32:04;;;;;;;9.75;8.40;;;;;;;;;;5035867;28;20180;-46
2021/07/24 11:34:31;;;;;;;8.98;8.05;;;;;;;;;;5035667;28;20195;-47
2021/07/24 11:36:58;;;;;;;12.35;7.57;;;;;;;;;;5034835;28;20183;-47
2021/07/24 11:39:28;;;;;;;9.55;8.55;;;;;;;;;;5035593;28;20576;-47
2021/07/24 11:41:54;;;;;;;11.02;8.38;;;;;;;;;;5035358;28;20190;-47
2021/07/24 11:44:31;;;;;;;9.63;7.88;;;;;;;;;;5035651;28;20195;-47
2021/07/24 11:47:00;;;;;;;9.35;8.30;;;;;;;;;;5035008;28;20518;-47
2021/07/24 11:49:27;;;;;;;9.95;8.35;;;;;;;;;;5035708;28;20179;-47
2021/07/24 11:51:54;;;;;;;10.57;8.65;;;;;;;;;;5034915;28;20229;-47
2021/07/24 11:54:33;;;;;;;9.32;8.10;;;;;;;;;;5034780;28;20488;-47
2021/07/24 11:56:59;;;;;;;11.13;8.60;;;;;;;;;;5035286;28;20187;-47
2021/07/24 11:59:29;;;;;;;15.05;8.57;;;;;;;;;;5034896;28;20219;-47
2021/07/24 12:01:56;;;;;;;12.32;8.13;;;;;;;;;;5028746;28;20184;-47
2021/07/24 12:04:22;;;;;;;9.82;8.93;;;;;;;;;;5025332;28;20179;-47
2021/07/24 12:07:08;;;;;;;10.40;9.30;;;;;;;;;;5035530;28;20427;-47
2021/07/24 12:09:36;;;;;;;10.75;9.38;;;;;;;;;;5035235;28;20428;-46
2021/07/24 12:12:02;;;;;;;11.48;8.70;;;;;;;;;;5034989;28;20539;-47
2021/07/24 12:14:29;;;;;;;9.82;8.20;;;;;;;;;;5034774;28;20261;-47
2021/07/24 12:17:08;;;;;;;10.40;8.52;;;;;;;;;;5034726;28;20234;-47
2021/07/24 12:19:41;;;;;;;9.25;8.35;;;;;;;;;;5018571;28;20212;-46
2021/07/24 12:22:11;;;;;;;9.57;8.60;;;;;;;;;;5031206;28;20194;-47
2021/07/24 12:24:37;;;;;;;9.38;8.48;;;;;;;;;;5034779;28;20218;-47
2021/07/24 12:27:07;;;;;;;9.02;8.13;;;;;;;;;;5034314;28;20624;-47
2021/07/24 12:29:45;;;;;;;9.05;8.05;;;;;;;;;;5034419;28;20195;-47
2021/07/24 12:32:12;;;;;;;10.80;8.15;;;;;;;;;;5034828;28;20230;-47
2021/07/24 12:34:38;;;;;;;9.00;8.13;;;;;;;;;;5033742;28;20183;-47
2021/07/24 12:37:04;;;;;;;9.38;8.38;;;;;;;;;;5033638;28;20203;-47
2021/07/24 12:39:33;;;;;;;9.38;7.75;;;;;;;;;;5034693;28;20657;-47
2021/07/24 12:42:03;;;;;;;8.10;7.32;;;;;;;;;;5034822;28;20587;-47
2021/07/24 12:44:29;;;;;;;8.90;8.00;;;;;;;;;;5034172;28;20175;-46
2021/07/24 12:47:12;;;;;;;9.65;8.52;;;;;;;;;;5034269;28;20182;-47
2021/07/24 12:49:38;;;;;;;9.27;7.93;;;;;;;;;;5026720;28;20180;-47
2021/07/24 12:52:23;;;;;;;8.30;7.50;;;;;;;;;;5034516;28;20191;-47
2021/07/24 12:55:09;;;;;;;12.27;7.45;;;;;;;;;;5034280;28;20179;-47
2021/07/24 12:57:36;;;;;;;9.27;7.78;;;;;;;;;;5033316;28;20231;-47
2021/07/24 13:00:04;;;;;;;8.60;7.80;;;;;;;;;;5034238;28;20235;-47
2021/07/24 13:02:30;;;;;;;9.35;7.68;;;;;;;;;;5034078;28;20698;-47
2021/07/24 13:04:57;;;;;;;11.82;7.93;;;;;;;;;;5033446;28;20250;-47
2021/07/24 13:07:26;;;;;;;8.77;7.88;;;;;;;;;;5033369;28;20179;-47
2021/07/24 13:09:54;;;;;;;7.75;6.97;;;;;;;;;;5053351;28;20221;-47
2021/07/24 13:12:20;;;;;;;8.43;7.63;;;;;;;;;;5039164;28;20172;-46
2021/07/24 13:14:46;;;;;;;8.48;7.35;;;;;;;;;;5027958;28;20235;-47
2021/07/24 13:17:12;;;;;;;8.75;7.93;;;;;;;;;;5034066;28;20171;-47
2021/07/24 13:19:38;;;;;;;7.75;6.93;;;;;;;;;;5034317;28;20456;-46
2021/07/24 13:22:04;;;;;;;9.52;7.50;;;;;;;;;;5029269;28;20190;-47
2021/07/24 13:24:31;;;;;;;8.27;7.22;;;;;;;;;;5032369;28;20207;-47
2021/07/24 13:29:42;;;;;;;9.23;7.50;;;;;;;;;;5029502;28;20230;-47
2021/07/24 13:32:08;;;;;;;8.55;7.65;;;;;;;;;;5031131;28;21473;-47
2021/07/24 13:34:37;;;;;;;8.45;7.35;;;;;;;;;;5020538;28;20262;-47
2021/07/24 13:37:03;;;;;;;8.57;7.25;;;;;;;;;;5020719;28;20222;-47
2021/07/24 13:39:30;;;;;;;9.45;7.63;;;;;;;;;;5023877;28;20465;-47
2021/07/24 13:41:56;;;;;;;8.68;7.13;;;;;;;;;;5018884;28;20485;-47
2021/07/24 13:44:22;;;;;;;9.07;7.80;;;;;;;;;;5022285;28;20535;-47
2021/07/24 13:46:48;;;;;;;11.73;7.82;;;;;;;;;;5027288;28;20179;-47
2021/07/24 13:49:14;;;;;;;10.27;7.35;;;;;;;;;;5021065;28;20444;-47
2021/07/24 13:51:40;;;;;;;10.82;7.80;;;;;;;;;;5016709;28;20271;-47
2021/07/24 13:54:10;;;;;;;9.80;7.90;;;;;;;;;;5034014;28;20247;-47
2021/07/24 13:56:36;;;;;;;9.80;7.40;;;;;;;;;;5033252;28;20218;-47
2021/07/24 13:59:02;;;;;;;8.10;7.40;;;;;;;;;;5022940;28;20211;-47
2021/07/24 14:01:28;;;;;;;10.40;8.02;;;;;;;;;;5031188;28;20199;-47
2021/07/24 14:03:55;;;;;;;8.27;7.50;;;;;;;;;;5014065;28;20184;-47
2021/07/24 14:06:22;;;;;;;9.43;7.50;;;;;;;;;;5013148;28;20187;-50
2021/07/24 14:08:48;;;;;;;9.38;7.53;;;;;;;;;;5029094;28;20191;-47
2021/07/24 14:11:19;;;;;;;8.02;7.25;;;;;;;;;;5036700;28;20215;-47
2021/07/24 14:13:45;;;;;;;8.13;7.05;;;;;;;;;;5031201;28;20571;-47
2021/07/24 14:16:11;;;;;;;8.60;7.68;;;;;;;;;;5031367;28;20198;-47
2021/07/24 14:18:37;;;;;;;10.23;7.45;;;;;;;;;;5035508;28;20606;-47
2021/07/24 14:21:03;;;;;;;9.27;7.43;;;;;;;;;;5036630;28;20191;-47
2021/07/24 14:23:30;;;;;;;8.20;7.40;;;;;;;;;;5036976;28;20266;-47
2021/07/24 14:25:59;;;;;;;10.57;7.63;;;;;;;;;;5036810;28;20175;-47
2021/07/24 14:28:25;;;;;;;8.52;7.32;;;;;;;;;;5036290;28;20186;-47
2021/07/24 14:30:51;;;;;;;9.40;8.27;;;;;;;;;;5036930;28;20453;-47
2021/07/24 14:33:17;;;;;;;10.90;7.60;;;;;;;;;;5036836;28;20184;-47
2021/07/24 14:35:43;;;;;;;8.73;7.80;;;;;;;;;;5036970;28;20207;-47
2021/07/24 14:38:09;;;;;;;8.30;7.30;;;;;;;;;;5036446;28;20176;-47
2021/07/24 14:40:35;;;;;;;7.93;7.03;;;;;;;;;;5036727;28;20180;-47